Time;durP1;ratioP1;P1;durP2;ratioP2;P2;SDS_P1;SDS_P2;PMS_P1;PMS_P2;Temp;Humidity;BMP_temperature;BMP_pressure;BME280_temperature;BME280_humidity;BME280_pressure;Samples;Min_cycle;Max_cycle;Signal;HPM_P1;HPM_P2
2022/11/28 00:00:00;;;;;;;1.00;1.00;;;7.20;99.90;;;;;;5022314;28;20301;-64
2022/11/28 00:02:27;;;;;;;1.93;1.00;;;7.20;99.90;;;;;;5013644;28;20200;-63
2022/11/28 00:04:54;;;;;;;0.80;0.80;;;7.20;99.90;;;;;;5018085;28;20205;-64
2022/11/28 00:07:21;;;;;;;1.00;1.00;;;7.20;99.90;;;;;;5023029;28;20205;-65
2022/11/28 00:09:48;;;;;;;1.17;1.17;;;7.30;99.90;;;;;;5018300;28;20284;-64
2022/11/28 00:12:15;;;;;;;0.83;0.83;;;7.30;99.90;;;;;;5016529;28;20293;-65
2022/11/28 00:14:42;;;;;;;0.80;0.80;;;7.30;99.90;;;;;;5024763;28;20205;-64
2022/11/28 00:17:10;;;;;;;1.10;1.10;;;7.20;99.90;;;;;;5019831;28;20591;-65
2022/11/28 00:19:37;;;;;;;1.00;1.00;;;7.20;99.90;;;;;;5017547;28;20204;-64
2022/11/28 00:22:04;;;;;;;1.20;1.20;;;7.20;99.90;;;;;;5016695;28;20330;-64
2022/11/28 00:24:31;;;;;;;1.10;1.10;;;7.20;99.90;;;;;;5028418;28;20319;-64
2022/11/28 00:26:58;;;;;;;1.00;1.00;;;7.20;99.90;;;;;;5024641;28;20244;-64
2022/11/28 00:29:25;;;;;;;1.00;1.00;;;7.10;99.90;;;;;;5027800;28;20254;-63
2022/11/28 00:31:52;;;;;;;1.00;1.00;;;7.10;99.90;;;;;;5031816;28;20201;-64
2022/11/28 00:34:20;;;;;;;0.90;0.90;;;7.10;99.90;;;;;;5017152;28;20272;-64
2022/11/28 00:36:47;;;;;;;0.80;0.80;;;7.10;99.90;;;;;;5034482;28;20237;-64
2022/11/28 00:39:16;;;;;;;0.80;0.80;;;7.10;99.90;;;;;;5033384;28;20236;-64
2022/11/28 00:41:43;;;;;;;0.60;0.60;;;7.10;99.90;;;;;;5032926;28;20233;-62
2022/11/28 00:44:11;;;;;;;0.90;0.90;;;7.20;99.90;;;;;;5033267;28;20752;-65
2022/11/28 00:46:37;;;;;;;0.67;0.67;;;7.10;99.90;;;;;;5027997;28;20327;-63
2022/11/28 00:49:04;;;;;;;1.03;0.93;;;7.00;99.90;;;;;;5037690;28;20662;-64
2022/11/28 00:51:34;;;;;;;0.60;0.60;;;7.20;99.90;;;;;;5038181;28;20287;-65
2022/11/28 00:54:03;;;;;;;0.80;0.80;;;7.10;99.90;;;;;;5032182;28;20200;-65
2022/11/28 00:56:32;;;;;;;1.00;0.90;;;7.20;99.90;;;;;;5030984;28;20608;-64
2022/11/28 00:58:59;;;;;;;1.00;1.00;;;7.20;99.90;;;;;;5031324;28;20308;-64
2022/11/28 01:01:29;;;;;;;0.80;0.80;;;7.20;99.90;;;;;;5025823;28;20207;-66
2022/11/28 01:03:58;;;;;;;0.80;0.80;;;7.20;99.90;;;;;;5012105;28;20206;-64
2022/11/28 01:06:26;;;;;;;0.90;0.90;;;7.20;99.90;;;;;;5031507;28;20283;-64
2022/11/28 01:08:55;;;;;;;0.80;0.80;;;7.20;99.90;;;;;;5028720;28;20246;-64
2022/11/28 01:11:23;;;;;;;0.90;0.90;;;7.20;99.90;;;;;;5030511;28;20207;-64
2022/11/28 01:13:50;;;;;;;1.03;1.03;;;7.20;99.90;;;;;;5030600;28;20227;-64
2022/11/28 01:16:17;;;;;;;0.87;0.87;;;7.20;99.90;;;;;;5030050;28;20311;-64
2022/11/28 01:18:44;;;;;;;0.80;0.80;;;7.30;99.90;;;;;;5025625;28;20240;-64
2022/11/28 01:21:11;;;;;;;0.93;0.93;;;7.30;99.90;;;;;;5028611;28;20747;-65
2022/11/28 01:23:38;;;;;;;0.83;0.83;;;7.30;99.90;;;;;;5029685;28;20232;-64
2022/11/28 01:26:09;;;;;;;0.80;0.80;;;7.30;99.90;;;;;;5030847;28;20221;-66
2022/11/28 01:28:36;;;;;;;0.87;0.87;;;7.20;99.90;;;;;;5030503;28;20275;-66
2022/11/28 01:31:05;;;;;;;0.90;0.90;;;7.30;99.90;;;;;;5029102;28;20205;-64
2022/11/28 01:33:32;;;;;;;0.80;0.80;;;7.30;99.90;;;;;;5026686;28;20220;-66
2022/11/28 01:35:59;;;;;;;0.80;0.80;;;7.20;99.90;;;;;;5020542;28;20231;-66
2022/11/28 01:38:26;;;;;;;0.83;0.83;;;7.20;99.90;;;;;;5011404;28;20220;-65
2022/11/28 01:40:54;;;;;;;0.90;0.90;;;7.10;99.90;;;;;;5021647;28;20320;-65
2022/11/28 01:43:23;;;;;;;0.73;0.73;;;7.10;99.90;;;;;;5018717;28;20210;-66
2022/11/28 01:45:50;;;;;;;0.80;0.80;;;7.10;99.90;;;;;;5021524;28;20217;-64
2022/11/28 01:48:24;;;;;;;0.90;0.90;;;7.10;99.90;;;;;;5022508;28;20736;-66
2022/11/28 01:50:54;;;;;;;1.10;1.00;;;7.10;99.90;;;;;;5015226;28;20268;-66
2022/11/28 01:53:21;;;;;;;0.80;0.80;;;7.00;99.90;;;;;;5021441;28;20312;-65
2022/11/28 01:55:52;;;;;;;0.70;0.70;;;7.00;99.90;;;;;;5018943;28;20233;-64
2022/11/28 01:58:19;;;;;;;0.80;0.80;;;7.00;99.90;;;;;;5024209;28;20232;-64
2022/11/28 02:00:48;;;;;;;0.90;0.90;;;7.00;99.90;;;;;;5018026;28;20296;-65
2022/11/28 02:03:19;;;;;;;0.70;0.70;;;7.00;99.90;;;;;;5023227;28;20285;-64
2022/11/28 02:05:48;;;;;;;0.90;0.90;;;7.00;99.90;;;;;;5029020;28;20752;-65
2022/11/28 02:08:15;;;;;;;0.90;0.90;;;7.00;99.90;;;;;;5024471;28;20275;-66
2022/11/28 02:11:01;;;;;;;0.77;0.77;;;6.90;99.90;;;;;;5022988;28;20288;-67
2022/11/28 02:13:38;;;;;;;0.90;0.90;;;6.90;99.90;;;;;;5006847;28;20719;-65
2022/11/28 02:16:19;;;;;;;0.63;0.63;;;7.00;99.90;;;;;;5021136;28;20253;-65
2022/11/28 02:18:59;;;;;;;0.70;0.70;;;7.00;99.90;;;;;;5022559;28;20279;-64
2022/11/28 02:21:46;;;;;;;0.90;0.90;;;7.00;99.90;;;;;;5020458;28;20207;-65
2022/11/28 02:24:42;;;;;;;0.90;0.90;;;7.10;99.90;;;;;;5021207;28;20315;-64
2022/11/28 02:27:29;;;;;;;0.90;0.80;;;7.10;99.90;;;;;;5025033;28;20230;-65
2022/11/28 02:30:08;;;;;;;0.80;0.80;;;7.20;99.90;;;;;;5018731;28;20728;-66
2022/11/28 02:32:56;;;;;;;0.80;0.80;;;7.10;99.90;;;;;;5013882;28;20201;-66
2022/11/28 02:35:32;;;;;;;0.70;0.70;;;7.10;99.90;;;;;;5028311;28;20242;-65
2022/11/28 02:38:07;;;;;;;0.80;0.80;;;7.10;99.90;;;;;;5039166;28;20332;-64
2022/11/28 02:40:39;;;;;;;0.67;0.67;;;7.10;99.90;;;;;;5026577;28;20656;-66
2022/11/28 02:43:14;;;;;;;1.10;1.07;;;7.20;99.90;;;;;;5036744;28;20224;-67
2022/11/28 02:45:49;;;;;;;0.70;0.70;;;7.10;99.90;;;;;;5031022;28;20301;-65
2022/11/28 02:48:26;;;;;;;0.80;0.80;;;7.10;99.90;;;;;;5029842;28;20208;-65
2022/11/28 02:50:58;;;;;;;0.60;0.60;;;7.10;99.90;;;;;;5029781;28;20210;-64
2022/11/28 02:53:28;;;;;;;0.80;0.80;;;7.00;99.90;;;;;;5026436;28;20200;-64
2022/11/28 02:55:57;;;;;;;0.90;0.90;;;7.00;99.90;;;;;;5030107;28;20220;-66
2022/11/28 02:58:24;;;;;;;0.80;0.80;;;7.00;99.90;;;;;;5030232;28;20726;-64
2022/11/28 03:00:51;;;;;;;1.10;1.10;;;7.00;99.90;;;;;;5037605;28;20229;-64
2022/11/28 03:03:43;;;;;;;0.80;0.80;;;7.00;99.90;;;;;;5029802;28;20293;-65
2022/11/28 03:06:21;;;;;;;0.80;0.80;;;7.00;99.90;;;;;;5031827;28;20220;-64
2022/11/28 03:09:09;;;;;;;0.70;0.70;;;7.00;99.90;;;;;;5033579;28;20200;-63
2022/11/28 03:11:49;;;;;;;0.70;0.70;;;7.00;99.90;;;;;;5027583;28;20242;-63
2022/11/28 03:14:28;;;;;;;0.77;0.77;;;7.10;99.90;;;;;;5030458;28;20216;-63
2022/11/28 03:17:07;;;;;;;0.70;0.70;;;7.10;99.90;;;;;;5032607;28;20310;-63
2022/11/28 03:19:39;;;;;;;0.70;0.70;;;7.20;99.90;;;;;;5030621;28;20295;-64
2022/11/28 03:22:13;;;;;;;0.53;0.53;;;7.20;99.90;;;;;;5030827;28;20297;-64
2022/11/28 03:24:44;;;;;;;1.00;1.00;;;7.30;99.90;;;;;;5029821;28;20618;-65
2022/11/28 03:27:17;;;;;;;1.20;1.20;;;7.40;99.90;;;;;;5030024;28;20247;-64
2022/11/28 03:29:49;;;;;;;1.60;1.50;;;7.40;99.90;;;;;;5030535;28;20189;-63
2022/11/28 03:32:21;;;;;;;1.10;1.10;;;7.50;99.90;;;;;;5037235;28;20298;-64
2022/11/28 03:34:53;;;;;;;0.80;0.80;;;7.50;99.90;;;;;;5029817;28;20287;-63
2022/11/28 03:37:23;;;;;;;0.87;0.87;;;7.60;99.90;;;;;;5021208;28;20251;-64
2022/11/28 03:39:55;;;;;;;0.80;0.80;;;7.50;99.90;;;;;;5014823;28;20229;-65
2022/11/28 03:42:24;;;;;;;0.77;0.77;;;7.50;99.90;;;;;;5020878;28;20213;-64
2022/11/28 03:44:57;;;;;;;0.70;0.70;;;7.50;99.90;;;;;;5023206;28;20289;-63
2022/11/28 03:47:28;;;;;;;0.70;0.70;;;7.60;99.90;;;;;;5018105;28;20201;-65
2022/11/28 03:50:02;;;;;;;0.70;0.70;;;7.50;99.90;;;;;;5024271;28;20665;-64
2022/11/28 03:52:32;;;;;;;0.70;0.70;;;7.50;99.90;;;;;;5014074;28;20224;-64
2022/11/28 03:55:04;;;;;;;1.23;1.00;;;7.50;99.90;;;;;;5025873;28;20204;-64
2022/11/28 03:57:35;;;;;;;0.90;0.90;;;7.40;99.90;;;;;;5008940;28;20201;-64
2022/11/28 04:00:05;;;;;;;0.83;0.83;;;7.20;99.90;;;;;;5021940;28;20320;-63
2022/11/28 04:02:37;;;;;;;0.80;0.80;;;7.20;99.90;;;;;;5024747;28;20564;-63
2022/11/28 04:05:16;;;;;;;0.80;0.80;;;7.20;99.90;;;;;;5023918;28;20293;-64
2022/11/28 04:07:47;;;;;;;0.70;0.70;;;7.20;99.90;;;;;;5025094;28;20305;-64
2022/11/28 04:10:20;;;;;;;0.60;0.60;;;7.10;99.90;;;;;;5022943;28;20285;-64
2022/11/28 04:12:54;;;;;;;0.70;0.70;;;7.20;99.90;;;;;;5027424;28;20213;-64
2022/11/28 04:15:30;;;;;;;0.90;0.90;;;7.20;99.90;;;;;;5024844;28;20308;-64
2022/11/28 04:18:04;;;;;;;0.67;0.67;;;7.10;99.90;;;;;;5022947;28;20201;-64
2022/11/28 04:20:36;;;;;;;0.67;0.67;;;7.10;99.90;;;;;;5018341;28;20232;-64
2022/11/28 04:23:09;;;;;;;0.87;0.87;;;7.10;99.90;;;;;;5023475;28;20284;-64
2022/11/28 04:25:39;;;;;;;0.90;0.90;;;7.20;99.90;;;;;;5024407;28;20684;-64
2022/11/28 04:28:11;;;;;;;0.80;0.80;;;7.20;99.90;;;;;;5025773;28;20772;-64
2022/11/28 04:30:39;;;;;;;0.90;0.90;;;7.20;99.90;;;;;;5027515;28;20201;-64
2022/11/28 04:33:09;;;;;;;0.70;0.70;;;7.20;99.90;;;;;;5030232;28;20201;-65
2022/11/28 04:35:41;;;;;;;0.70;0.70;;;7.20;99.90;;;;;;5028184;28;20242;-64
2022/11/28 04:38:10;;;;;;;0.70;0.70;;;7.20;99.90;;;;;;5034787;28;20197;-63
2022/11/28 04:40:41;;;;;;;0.70;0.70;;;7.20;99.90;;;;;;5033774;28;20287;-64
2022/11/28 04:43:14;;;;;;;0.70;0.70;;;7.00;99.90;;;;;;5035052;28;20208;-64
2022/11/28 04:45:46;;;;;;;0.87;0.87;;;7.00;99.90;;;;;;5032642;28;20714;-67
2022/11/28 04:48:13;;;;;;;0.80;0.80;;;7.10;99.90;;;;;;5032103;28;20201;-65
2022/11/28 04:50:48;;;;;;;0.90;0.90;;;7.00;99.90;;;;;;5032542;28;20292;-63
2022/11/28 04:53:20;;;;;;;0.60;0.60;;;7.00;99.90;;;;;;5032263;28;20203;-66
2022/11/28 04:55:52;;;;;;;0.93;0.93;;;7.00;99.90;;;;;;5032384;28;20217;-66
2022/11/28 04:58:23;;;;;;;0.60;0.60;;;7.00;99.90;;;;;;5031743;28;20208;-65
2022/11/28 05:00:52;;;;;;;0.77;0.77;;;7.00;99.90;;;;;;5031749;28;20283;-66
2022/11/28 05:03:19;;;;;;;0.70;0.70;;;7.00;99.90;;;;;;5032213;28;20732;-65
2022/11/28 05:05:50;;;;;;;0.70;0.70;;;7.00;99.90;;;;;;5031976;28;20303;-67
2022/11/28 05:08:18;;;;;;;0.90;0.90;;;6.90;99.90;;;;;;5037224;28;20280;-66
2022/11/28 05:10:45;;;;;;;0.90;0.90;;;7.00;99.90;;;;;;5035783;28;20207;-65
2022/11/28 05:13:12;;;;;;;0.87;0.87;;;6.90;99.90;;;;;;5031965;28;20667;-66
2022/11/28 05:15:39;;;;;;;0.80;0.80;;;6.80;99.90;;;;;;5031572;28;20309;-66
2022/11/28 05:18:07;;;;;;;0.80;0.80;;;6.70;99.90;;;;;;5031743;28;20223;-65
2022/11/28 05:20:34;;;;;;;0.90;0.90;;;6.70;99.90;;;;;;5031251;28;20229;-65
2022/11/28 05:23:02;;;;;;;0.80;0.80;;;6.60;99.90;;;;;;5031956;28;20687;-64
2022/11/28 05:25:29;;;;;;;0.80;0.80;;;6.60;99.90;;;;;;5031709;28;20308;-64
2022/11/28 05:27:56;;;;;;;0.90;0.90;;;6.70;99.90;;;;;;5031145;28;20207;-64
2022/11/28 05:30:23;;;;;;;0.70;0.70;;;6.70;99.90;;;;;;5031459;28;20684;-64
2022/11/28 05:32:49;;;;;;;0.70;0.70;;;6.60;99.90;;;;;;5033123;28;20686;-65
2022/11/28 05:35:17;;;;;;;0.80;0.80;;;6.70;99.90;;;;;;5037684;28;20243;-66
2022/11/28 05:37:43;;;;;;;0.80;0.80;;;6.70;99.90;;;;;;5040687;28;20228;-65
2022/11/28 05:40:12;;;;;;;0.90;0.90;;;6.70;99.90;;;;;;5032675;28;20614;-65
2022/11/28 05:42:39;;;;;;;1.10;1.00;;;6.70;99.90;;;;;;5030987;28;20705;-65
2022/11/28 05:45:07;;;;;;;0.80;0.80;;;6.80;99.90;;;;;;5031230;28;20301;-68
2022/11/28 05:47:34;;;;;;;0.80;0.80;;;6.80;99.90;;;;;;5031448;28;20211;-65
2022/11/28 05:50:01;;;;;;;0.80;0.80;;;6.90;99.90;;;;;;5030829;28;20197;-65
2022/11/28 05:52:31;;;;;;;0.80;0.80;;;6.90;99.90;;;;;;5030774;28;20288;-65
2022/11/28 05:54:58;;;;;;;0.77;0.77;;;6.90;99.90;;;;;;5030850;28;20676;-66
2022/11/28 05:57:28;;;;;;;0.77;0.77;;;6.90;99.90;;;;;;5031313;28;20214;-65
2022/11/28 05:59:56;;;;;;;0.80;0.80;;;6.90;99.90;;;;;;5030622;28;20311;-65
2022/11/28 06:02:23;;;;;;;0.67;0.67;;;6.90;99.90;;;;;;5029984;28;20271;-66
2022/11/28 06:04:50;;;;;;;0.80;0.80;;;7.00;99.90;;;;;;5030841;28;20204;-65
2022/11/28 06:07:17;;;;;;;0.63;0.63;;;7.00;99.90;;;;;;5030560;28;20196;-65
2022/11/28 06:09:44;;;;;;;0.70;0.70;;;7.10;99.90;;;;;;5030660;28;20200;-64
2022/11/28 06:12:11;;;;;;;0.97;0.73;;;7.00;99.90;;;;;;5030513;28;20653;-65
2022/11/28 06:14:39;;;;;;;0.97;0.97;;;7.10;99.90;;;;;;5030803;28;20288;-66
2022/11/28 06:17:06;;;;;;;0.70;0.70;;;7.10;99.90;;;;;;5030306;28;20995;-64
2022/11/28 06:19:33;;;;;;;0.80;0.80;;;7.10;99.90;;;;;;5029886;28;20732;-66
2022/11/28 06:22:00;;;;;;;0.80;0.80;;;7.10;99.90;;;;;;5029841;28;20205;-66
2022/11/28 06:24:27;;;;;;;0.93;0.93;;;7.20;99.90;;;;;;5030218;28;20679;-66
2022/11/28 06:26:55;;;;;;;1.00;1.00;;;7.20;99.90;;;;;;5029650;28;20310;-64
2022/11/28 06:29:22;;;;;;;0.90;0.90;;;7.20;99.90;;;;;;5030378;28;20208;-63
2022/11/28 06:31:50;;;;;;;0.93;0.93;;;7.20;99.90;;;;;;5030392;28;20223;-66
2022/11/28 06:34:17;;;;;;;1.00;1.00;;;7.30;99.90;;;;;;5030560;28;20258;-66
2022/11/28 06:36:44;;;;;;;0.90;0.90;;;7.20;99.90;;;;;;5030044;28;20242;-64
2022/11/28 06:39:13;;;;;;;0.90;0.90;;;7.20;99.90;;;;;;5030674;28;20246;-64
2022/11/28 06:41:40;;;;;;;0.90;0.90;;;7.20;99.90;;;;;;5030312;28;20201;-64
2022/11/28 06:44:07;;;;;;;0.93;0.93;;;7.20;99.90;;;;;;5031585;28;20259;-65
2022/11/28 06:46:34;;;;;;;0.90;0.90;;;7.20;99.90;;;;;;5036672;28;20239;-67
2022/11/28 06:49:02;;;;;;;0.90;0.90;;;7.20;99.90;;;;;;5029179;28;20201;-63
2022/11/28 06:51:29;;;;;;;0.70;0.70;;;7.10;99.90;;;;;;5030210;28;20200;-65
2022/11/28 06:53:56;;;;;;;0.80;0.80;;;7.10;99.90;;;;;;5031081;28;20272;-65
2022/11/28 06:56:23;;;;;;;1.10;1.10;;;7.20;99.90;;;;;;5030795;28;20310;-63
2022/11/28 06:58:54;;;;;;;1.10;1.10;;;7.30;99.90;;;;;;5030671;28;20204;-64
2022/11/28 07:01:22;;;;;;;0.90;0.90;;;7.30;99.90;;;;;;5042472;28;20205;-65
2022/11/28 07:03:50;;;;;;;0.90;0.90;;;7.30;99.90;;;;;;5045675;28;20200;-64
2022/11/28 07:06:19;;;;;;;1.10;1.00;;;7.30;99.90;;;;;;5045213;28;20224;-65
2022/11/28 07:08:46;;;;;;;1.00;1.00;;;7.30;99.90;;;;;;5030091;28;20291;-65
2022/11/28 07:11:15;;;;;;;1.20;1.20;;;7.30;99.90;;;;;;5029164;28;20319;-64
2022/11/28 07:13:44;;;;;;;0.97;0.97;;;7.40;99.90;;;;;;5029718;28;20280;-63
2022/11/28 07:16:14;;;;;;;1.00;1.00;;;7.40;99.90;;;;;;5029095;28;20216;-63
2022/11/28 07:18:41;;;;;;;1.00;1.00;;;7.60;99.90;;;;;;5029276;28;20714;-63
2022/11/28 07:21:08;;;;;;;1.10;1.10;;;7.40;99.90;;;;;;5029276;28;20244;-64
2022/11/28 07:23:37;;;;;;;1.00;1.00;;;7.50;99.90;;;;;;5032823;28;20743;-65
2022/11/28 07:26:05;;;;;;;1.47;1.30;;;7.50;99.90;;;;;;5023008;28;20329;-64
2022/11/28 07:28:33;;;;;;;1.10;1.10;;;7.50;99.90;;;;;;5026023;28;20205;-64
2022/11/28 07:31:01;;;;;;;1.30;1.20;;;7.60;99.90;;;;;;5029701;28;20204;-64
2022/11/28 07:33:28;;;;;;;1.40;1.30;;;7.60;99.90;;;;;;5033898;28;20201;-64
2022/11/28 07:35:59;;;;;;;1.70;1.60;;;7.60;99.90;;;;;;5033478;28;20614;-63
2022/11/28 07:38:25;;;;;;;2.13;1.93;;;7.60;99.90;;;;;;5034334;28;20295;-64
2022/11/28 07:40:54;;;;;;;1.90;1.80;;;7.60;99.90;;;;;;5034584;28;20220;-64
2022/11/28 07:43:20;;;;;;;1.83;1.73;;;7.60;99.90;;;;;;5033818;28;20209;-64
2022/11/28 07:45:47;;;;;;;1.77;1.67;;;7.60;99.90;;;;;;5034142;28;20225;-64
2022/11/28 07:48:14;;;;;;;1.80;1.70;;;7.70;99.90;;;;;;5034112;28;20521;-65
2022/11/28 07:50:41;;;;;;;1.83;1.73;;;7.70;99.90;;;;;;5033967;28;20199;-63
2022/11/28 07:53:08;;;;;;;1.87;1.77;;;7.70;99.90;;;;;;5033654;28;20204;-64
2022/11/28 07:55:36;;;;;;;1.20;1.20;;;7.60;99.90;;;;;;5026966;28;20311;-63
2022/11/28 07:58:04;;;;;;;1.20;1.20;;;7.70;99.90;;;;;;5033421;28;20205;-64
2022/11/28 08:00:31;;;;;;;1.10;1.10;;;7.70;99.90;;;;;;5033358;28;20682;-65
2022/11/28 08:02:58;;;;;;;1.00;1.00;;;7.70;99.90;;;;;;5034188;28;20215;-64
2022/11/28 08:05:25;;;;;;;1.10;1.10;;;7.80;99.90;;;;;;5033795;28;20319;-63
2022/11/28 08:07:52;;;;;;;1.00;1.00;;;7.80;99.90;;;;;;5033563;28;20253;-64
2022/11/28 08:10:19;;;;;;;1.97;1.00;;;7.90;99.90;;;;;;5033332;28;20200;-64
2022/11/28 08:12:46;;;;;;;0.90;0.90;;;7.90;99.90;;;;;;5033673;28;20262;-64
2022/11/28 08:15:14;;;;;;;1.30;1.20;;;8.00;99.90;;;;;;5033533;28;20230;-64
2022/11/28 08:17:41;;;;;;;1.00;1.00;;;8.00;99.90;;;;;;5031676;28;20689;-64
2022/11/28 08:20:09;;;;;;;1.03;0.93;;;8.20;99.90;;;;;;5033633;28;20235;-62
2022/11/28 08:22:35;;;;;;;1.60;1.50;;;8.30;99.90;;;;;;5033671;28;20207;-66
2022/11/28 08:25:02;;;;;;;1.60;1.50;;;8.30;99.90;;;;;;5035278;28;20232;-63
2022/11/28 08:27:29;;;;;;;1.20;1.20;;;8.30;99.90;;;;;;5034035;28;20236;-64
2022/11/28 08:29:56;;;;;;;0.90;0.90;;;8.20;99.90;;;;;;5034530;28;20196;-64
2022/11/28 08:32:24;;;;;;;0.90;0.90;;;8.20;99.90;;;;;;5033750;28;20197;-64
2022/11/28 08:34:51;;;;;;;1.00;1.00;;;8.20;99.90;;;;;;5032832;28;20201;-64
2022/11/28 08:37:18;;;;;;;1.00;1.00;;;8.30;99.90;;;;;;5032367;28;20215;-64
2022/11/28 08:39:45;;;;;;;0.87;0.87;;;8.30;99.90;;;;;;5032497;28;20229;-64
2022/11/28 08:42:11;;;;;;;0.93;0.93;;;8.30;99.90;;;;;;5031967;28;20209;-64
2022/11/28 08:44:38;;;;;;;1.07;1.00;;;8.40;99.90;;;;;;5029211;28;20201;-64
2022/11/28 08:47:06;;;;;;;1.10;1.10;;;8.50;99.90;;;;;;5034756;28;20224;-64
2022/11/28 08:49:36;;;;;;;0.93;0.93;;;8.50;99.90;;;;;;5036472;28;20338;-64
2022/11/28 08:52:03;;;;;;;0.90;0.90;;;8.60;99.90;;;;;;5043059;28;20205;-63
2022/11/28 08:54:30;;;;;;;1.20;1.03;;;8.60;99.90;;;;;;5044684;28;20236;-64
2022/11/28 08:56:57;;;;;;;1.00;1.00;;;8.50;99.90;;;;;;5047197;28;20251;-64
2022/11/28 08:59:25;;;;;;;1.10;1.10;;;8.60;99.90;;;;;;5046748;28;20215;-63
2022/11/28 09:01:52;;;;;;;1.43;0.93;;;8.60;99.90;;;;;;5048833;28;20210;-65
2022/11/28 09:04:19;;;;;;;0.90;0.90;;;8.60;99.90;;;;;;5047223;28;20272;-64
2022/11/28 09:06:47;;;;;;;0.93;0.93;;;8.70;99.90;;;;;;5044163;28;20338;-63
2022/11/28 09:09:14;;;;;;;1.10;1.10;;;8.70;99.90;;;;;;5040412;28;20300;-63
2022/11/28 09:11:42;;;;;;;0.80;0.80;;;8.80;99.90;;;;;;5038833;28;20279;-64
2022/11/28 09:14:09;;;;;;;0.80;0.80;;;8.80;99.90;;;;;;5037572;28;20272;-63
2022/11/28 09:16:37;;;;;;;1.00;1.00;;;9.00;99.90;;;;;;5036690;28;20216;-64
2022/11/28 09:19:05;;;;;;;1.20;1.10;;;9.10;99.90;;;;;;5036575;28;20288;-64
2022/11/28 09:21:32;;;;;;;1.20;1.20;;;9.10;99.90;;;;;;5035966;28;20294;-63
2022/11/28 09:24:01;;;;;;;1.10;1.10;;;9.10;99.90;;;;;;5033138;28;20288;-64
2022/11/28 09:26:28;;;;;;;1.07;1.07;;;9.10;99.90;;;;;;5030296;28;20216;-64
2022/11/28 09:28:55;;;;;;;0.87;0.87;;;9.20;99.90;;;;;;5032061;28;20207;-64
2022/11/28 09:31:22;;;;;;;0.80;0.80;;;9.20;99.90;;;;;;5032217;28;20558;-64
2022/11/28 09:33:49;;;;;;;0.90;0.90;;;9.30;99.90;;;;;;5032298;28;20315;-64
2022/11/28 09:36:18;;;;;;;1.23;1.20;;;9.30;99.90;;;;;;5032546;28;20238;-64
2022/11/28 09:38:45;;;;;;;0.90;0.90;;;9.30;99.90;;;;;;5031728;28;20310;-64
2022/11/28 09:41:42;;;;;;;1.00;1.00;;;9.30;99.90;;;;;;5031822;28;20312;-64
2022/11/28 09:44:17;;;;;;;0.90;0.90;;;9.40;99.90;;;;;;5015697;28;20677;-64
2022/11/28 09:46:46;;;;;;;1.10;1.10;;;9.40;99.90;;;;;;5031557;28;20283;-65
2022/11/28 09:49:25;;;;;;;1.00;1.00;;;9.40;99.90;;;;;;5032425;28;20201;-64
2022/11/28 09:51:56;;;;;;;1.10;1.10;;;9.50;99.90;;;;;;5032300;28;20258;-64
2022/11/28 09:54:29;;;;;;;1.10;1.00;;;9.50;99.90;;;;;;5032142;28;20211;-65
2022/11/28 09:57:00;;;;;;;1.00;1.00;;;9.60;99.90;;;;;;5031164;28;20696;-64
2022/11/28 09:59:29;;;;;;;1.10;1.10;;;9.70;99.90;;;;;;5024357;28;20279;-64
2022/11/28 10:02:05;;;;;;;0.90;0.90;;;9.70;99.90;;;;;;5031390;28;20602;-64
2022/11/28 10:04:41;;;;;;;1.10;1.10;;;9.70;99.90;;;;;;5024868;28;20209;-64
2022/11/28 10:07:17;;;;;;;1.80;1.47;;;9.80;99.90;;;;;;5031227;28;20224;-63
2022/11/28 10:09:56;;;;;;;1.03;1.03;;;9.80;99.90;;;;;;5031912;28;20621;-65
2022/11/28 10:12:40;;;;;;;1.10;1.10;;;9.80;99.90;;;;;;5031138;28;20201;-64
2022/11/28 10:15:20;;;;;;;0.90;0.90;;;9.90;99.90;;;;;;5030904;28;20200;-63
2022/11/28 10:17:54;;;;;;;1.10;1.10;;;9.90;99.90;;;;;;5031015;28;20206;-64
2022/11/28 10:20:22;;;;;;;1.00;1.00;;;9.90;99.90;;;;;;5031277;28;20259;-64
2022/11/28 10:22:55;;;;;;;1.40;1.30;;;10.00;99.90;;;;;;5031559;28;20211;-63
2022/11/28 10:25:26;;;;;;;0.90;0.90;;;10.00;99.90;;;;;;5030888;28;20307;-64
2022/11/28 10:27:55;;;;;;;0.90;0.90;;;10.00;99.90;;;;;;5030672;28;20296;-64
2022/11/28 10:30:25;;;;;;;0.90;0.90;;;10.00;99.90;;;;;;5029571;28;20201;-64
2022/11/28 10:32:58;;;;;;;1.00;1.00;;;10.10;99.90;;;;;;5030369;28;20201;-64
2022/11/28 10:35:33;;;;;;;1.17;1.10;;;10.00;99.90;;;;;;5024143;28;20250;-64
2022/11/28 10:38:00;;;;;;;1.03;1.03;;;10.10;99.90;;;;;;5011121;28;20209;-64
2022/11/28 10:40:36;;;;;;;1.00;1.00;;;10.20;99.90;;;;;;5014564;28;20243;-63
2022/11/28 10:43:12;;;;;;;1.17;1.00;;;10.20;99.90;;;;;;5010774;28;20288;-65
2022/11/28 10:45:48;;;;;;;1.10;1.10;;;10.30;99.90;;;;;;5010688;28;20631;-64
2022/11/28 10:48:25;;;;;;;1.00;1.00;;;10.30;99.90;;;;;;5010935;28;20298;-64
2022/11/28 10:51:00;;;;;;;1.70;1.37;;;10.30;99.90;;;;;;5016886;28;20228;-63
2022/11/28 10:53:41;;;;;;;1.10;1.10;;;10.30;99.90;;;;;;5011052;28;20200;-65
2022/11/28 10:56:22;;;;;;;1.20;1.20;;;10.40;99.90;;;;;;5012543;28;20315;-64
2022/11/28 10:59:04;;;;;;;1.23;1.17;;;10.40;99.90;;;;;;5021806;28;20615;-63
2022/11/28 11:01:36;;;;;;;1.43;1.40;;;10.40;99.90;;;;;;5007446;28;20225;-63
2022/11/28 11:04:02;;;;;;;1.27;1.20;;;10.40;99.90;;;;;;5013431;28;20303;-64
2022/11/28 11:06:29;;;;;;;1.30;1.30;;;10.50;99.90;;;;;;5011991;28;20221;-64
2022/11/28 11:08:56;;;;;;;1.10;1.10;;;10.50;99.90;;;;;;5015463;28;20201;-63
2022/11/28 11:11:27;;;;;;;1.53;1.30;;;10.60;99.90;;;;;;5016185;28;20612;-63
2022/11/28 11:13:59;;;;;;;1.13;1.13;;;10.60;99.90;;;;;;5017591;28;20204;-64
2022/11/28 11:16:26;;;;;;;1.27;1.13;;;10.70;99.90;;;;;;5009374;28;20236;-64
2022/11/28 11:18:55;;;;;;;1.40;1.30;;;10.70;99.90;;;;;;5017361;28;20205;-63
2022/11/28 11:21:23;;;;;;;1.40;1.30;;;10.80;99.90;;;;;;5021863;28;20225;-64
2022/11/28 11:24:09;;;;;;;1.00;1.00;;;10.90;99.90;;;;;;5025631;28;20228;-65
2022/11/28 11:26:42;;;;;;;1.00;1.00;;;10.90;99.90;;;;;;5014591;28;20231;-64
2022/11/28 11:29:22;;;;;;;1.00;1.00;;;11.00;99.90;;;;;;5028739;28;20201;-64
2022/11/28 11:31:52;;;;;;;1.07;1.07;;;11.00;99.90;;;;;;5018611;28;20287;-64
2022/11/28 11:34:21;;;;;;;1.10;1.00;;;11.20;99.90;;;;;;5022624;28;20205;-63
2022/11/28 11:36:49;;;;;;;0.90;0.90;;;11.10;99.90;;;;;;5025732;28;20239;-64
2022/11/28 11:39:20;;;;;;;0.90;0.90;;;11.10;99.90;;;;;;5016113;28;20292;-63
2022/11/28 11:41:48;;;;;;;0.90;0.90;;;11.10;99.90;;;;;;5018495;28;20217;-65
2022/11/28 11:44:33;;;;;;;1.13;1.10;;;11.10;99.90;;;;;;5022348;28;20221;-64
2022/11/28 11:47:02;;;;;;;0.70;0.70;;;11.20;99.90;;;;;;5021722;28;20248;-65
2022/11/28 11:49:32;;;;;;;0.90;0.90;;;11.30;99.90;;;;;;5014959;28;20197;-64
2022/11/28 11:52:03;;;;;;;0.60;0.60;;;11.30;99.90;;;;;;5018168;28;20197;-65
2022/11/28 11:54:30;;;;;;;4.60;0.80;;;11.30;99.90;;;;;;5017581;28;20239;-64
2022/11/28 11:56:58;;;;;;;0.83;0.83;;;11.30;99.90;;;;;;5019272;28;20232;-65
2022/11/28 11:59:32;;;;;;;0.90;0.80;;;11.30;99.90;;;;;;5015197;28;20210;-65
2022/11/28 12:02:02;;;;;;;0.60;0.60;;;11.30;99.90;;;;;;5016840;28;20315;-63
2022/11/28 12:04:34;;;;;;;0.50;0.50;;;11.30;99.90;;;;;;5017019;28;20221;-64
2022/11/28 12:07:04;;;;;;;0.80;0.80;;;11.30;99.90;;;;;;5024001;28;20223;-63
2022/11/28 12:09:36;;;;;;;0.70;0.70;;;11.30;99.90;;;;;;5016024;28;20205;-65
2022/11/28 12:12:12;;;;;;;0.53;0.53;;;11.30;99.90;;;;;;5021059;28;20201;-65
2022/11/28 12:14:41;;;;;;;0.80;0.80;;;11.30;99.90;;;;;;5013259;28;20755;-65
2022/11/28 12:17:21;;;;;;;0.80;0.80;;;11.30;99.90;;;;;;5015960;28;20229;-65
2022/11/28 12:19:59;;;;;;;0.87;0.87;;;11.30;99.90;;;;;;5014025;28;20219;-65
2022/11/28 12:22:35;;;;;;;0.83;0.83;;;11.50;99.90;;;;;;5013880;28;20233;-64
2022/11/28 12:25:11;;;;;;;0.80;0.80;;;11.30;99.90;;;;;;5012068;28;20749;-64
2022/11/28 12:27:59;;;;;;;0.80;0.80;;;11.30;99.90;;;;;;5011889;28;20292;-64
2022/11/28 12:30:39;;;;;;;0.80;0.80;;;11.30;99.90;;;;;;5014211;28;20209;-65
2022/11/28 12:33:22;;;;;;;1.10;1.10;;;11.30;99.90;;;;;;5014913;28;20392;-65
2022/11/28 12:36:01;;;;;;;0.70;0.70;;;11.30;99.90;;;;;;5027511;28;20255;-63
2022/11/28 12:38:42;;;;;;;1.00;0.90;;;11.30;99.90;;;;;;5044816;28;20204;-65
2022/11/28 12:41:26;;;;;;;0.90;0.90;;;11.30;99.90;;;;;;5048199;28;20255;-65
2022/11/28 12:44:03;;;;;;;0.70;0.70;;;11.20;99.90;;;;;;5044372;28;20291;-64
2022/11/28 12:46:41;;;;;;;0.80;0.80;;;11.30;99.90;;;;;;5038195;28;20227;-66
2022/11/28 12:49:16;;;;;;;0.87;0.87;;;11.30;99.90;;;;;;5042672;28;20296;-64
2022/11/28 12:51:56;;;;;;;0.80;0.80;;;11.40;99.90;;;;;;5037471;28;20200;-66
2022/11/28 12:54:56;;;;;;;0.50;0.50;;;11.30;99.90;;;;;;5033045;28;20292;-66
2022/11/28 12:57:32;;;;;;;0.60;0.60;;;11.40;99.90;;;;;;5003730;28;20203;-65
2022/11/28 13:00:05;;;;;;;0.90;0.90;;;11.40;99.90;;;;;;5033976;28;20200;-65
2022/11/28 13:02:44;;;;;;;0.90;0.67;;;11.40;99.90;;;;;;5036385;28;20282;-65
2022/11/28 13:05:27;;;;;;;0.63;0.63;;;11.40;99.90;;;;;;5046533;28;20204;-64
2022/11/28 13:08:17;;;;;;;0.80;0.80;;;11.40;99.90;;;;;;5038279;28;20200;-65
2022/11/28 13:10:51;;;;;;;0.70;0.70;;;11.40;99.90;;;;;;5037070;28;20209;-65
2022/11/28 13:13:22;;;;;;;0.70;0.70;;;11.40;99.90;;;;;;5038946;28;20296;-65